Time;durP1;ratioP1;P1;durP2;ratioP2;P2;SDS_P1;SDS_P2;PMS_P1;PMS_P2;Temp;Humidity;BMP_temperature;BMP_pressure;BME280_temperature;BME280_humidity;BME280_pressure;Samples;Min_cycle;Max_cycle;Signal;HPM_P1;HPM_P2
2023/07/03 00:05:25;;;;;;;22.27;16.58;;;;;;;26.82;44.83;100772.16;21060570;28;20044;-58
2023/07/03 00:15:26;;;;;;;20.67;16.85;;;;;;;26.76;44.43;100771.47;21069452;28;20036;-58
2023/07/03 00:25:28;;;;;;;20.90;16.48;;;;;;;26.74;44.83;100773.78;21073426;28;20097;-58
2023/07/03 00:35:29;;;;;;;20.48;16.77;;;;;;;26.76;44.76;100782.72;21070274;28;20105;-58
2023/07/03 00:45:33;;;;;;;20.00;15.60;;;;;;;26.76;44.76;100782.72;21065560;28;21168;-58
2023/07/03 00:55:37;;;;;;;19.10;16.35;;;;;;;26.76;44.72;100763.06;21057460;28;20070;-58
2023/07/03 01:05:47;;;;;;;22.38;15.45;;;;;;;26.61;44.74;100752.25;21074032;28;20429;-58
2023/07/03 01:15:49;;;;;;;19.75;15.60;;;;;;;26.74;44.96;100790.63;21076911;28;20475;-58
2023/07/03 01:25:52;;;;;;;20.60;15.40;;;;;;;26.75;45.04;100800.69;21076401;28;20028;-59
2023/07/03 01:35:54;;;;;;;18.77;15.27;;;;;;;26.73;45.56;100799.38;21062718;28;20036;-59
2023/07/03 01:45:55;;;;;;;19.85;15.73;;;;;;;26.76;45.72;100832.41;21071064;28;20044;-59
2023/07/03 01:56:10;;;;;;;18.95;15.15;;;;;;;26.63;45.16;100811.72;21065528;28;20036;-60
2023/07/03 02:06:35;;;;;;;18.48;14.85;;;;;;;26.68;45.51;100848.06;21062482;28;20048;-60
2023/07/03 02:16:36;;;;;;;19.08;14.90;;;;;;;26.57;44.58;100810.19;21073654;28;20044;-59
2023/07/03 02:26:38;;;;;;;17.92;14.20;;;;;;;26.70;44.55;100819.66;21087732;28;20040;-59
2023/07/03 02:36:40;;;;;;;14.85;12.65;;;;;;;26.70;44.82;100837.31;21088906;28;20548;-60
2023/07/03 02:46:42;;;;;;;15.40;13.00;;;;;;;26.68;44.90;100836.84;21088316;28;20097;-60
2023/07/03 02:56:43;;;;;;;14.52;12.45;;;;;;;26.67;45.07;100828.75;21087590;28;20040;-59
2023/07/03 03:06:48;;;;;;;13.30;11.68;;;;;;;26.70;44.74;100823.28;21086556;28;20040;-59
2023/07/03 03:16:49;;;;;;;14.88;11.30;;;;;;;26.68;44.70;100842.44;21086308;28;20040;-59
2023/07/03 03:26:50;;;;;;;14.77;12.23;;;;;;;26.69;44.42;100848.88;21085026;28;20044;-58
2023/07/03 03:36:52;;;;;;;13.85;11.40;;;;;;;26.65;44.17;100865.53;21083551;28;20040;-58
2023/07/03 03:46:53;;;;;;;14.77;11.25;;;;;;;26.61;44.21;100899.03;21082864;28;20033;-58
2023/07/03 03:56:54;;;;;;;13.60;11.57;;;;;;;26.56;44.21;100867.47;21082582;28;20104;-59
2023/07/03 04:06:59;;;;;;;12.65;10.93;;;;;;;26.59;43.89;100890.09;21082348;28;20044;-59
2023/07/03 04:17:01;;;;;;;13.70;11.15;;;;;;;26.56;43.61;100899.16;21080799;28;20044;-59
2023/07/03 04:27:03;;;;;;;13.32;11.88;;;;;;;26.55;44.12;100882.66;21080462;28;20399;-59
2023/07/03 04:37:04;;;;;;;11.73;9.98;;;;;;;26.55;44.11;100910.72;21079065;28;20479;-58
2023/07/03 04:47:13;;;;;;;14.18;11.32;;;;;;;26.55;44.75;100882.66;21077708;28;20043;-59
2023/07/03 04:57:14;;;;;;;12.60;10.88;;;;;;;26.57;44.96;100885.94;21077619;28;20036;-59
2023/07/03 05:07:19;;;;;;;15.55;12.07;;;;;;;26.54;44.58;100872.59;21077098;28;20520;-59
2023/07/03 05:17:21;;;;;;;13.10;10.90;;;;;;;26.47;44.73;100863.78;21076876;28;20074;-60
2023/07/03 05:27:22;;;;;;;13.07;10.80;;;;;;;26.55;44.53;100899.50;21075465;28;20036;-59
2023/07/03 05:37:23;;;;;;;12.77;10.88;;;;;;;26.55;44.24;100891.06;21075443;28;20445;-59
2023/07/03 05:47:25;;;;;;;13.05;10.98;;;;;;;26.52;44.04;100900.94;21074970;28;20044;-59
2023/07/03 05:57:26;;;;;;;11.73;9.95;;;;;;;26.49;43.68;100896.00;21083256;28;20412;-59
2023/07/03 06:07:27;;;;;;;11.57;10.38;;;;;;;26.48;43.47;100888.72;21092048;28;20051;-59
2023/07/03 06:17:29;;;;;;;11.75;9.75;;;;;;;26.41;43.18;100879.88;21090126;28;20036;-59
2023/07/03 06:27:34;;;;;;;14.27;10.82;;;;;;;26.35;43.72;100867.97;21089320;28;20380;-58
2023/07/03 06:37:35;;;;;;;11.30;9.20;;;;;;;26.41;47.60;100854.63;21088786;28;20097;-59
2023/07/03 06:47:36;;;;;;;11.73;10.43;;;;;;;26.68;49.94;100858.47;21087557;28;20056;-58
2023/07/03 06:57:38;;;;;;;11.75;9.25;;;;;;;26.74;51.26;100852.38;21087181;28;20032;-58
2023/07/03 07:07:39;;;;;;;10.48;9.15;;;;;;;26.81;52.20;100844.31;21085626;28;20380;-58
2023/07/03 07:17:40;;;;;;;12.07;9.90;;;;;;;26.93;52.70;100842.88;21085693;28;20040;-59
2023/07/03 07:27:42;;;;;;;10.10;8.85;;;;;;;27.00;53.25;100824.41;21083953;28;20453;-59
2023/07/03 07:37:43;;;;;;;12.48;9.63;;;;;;;26.92;52.62;100801.91;21084035;28;20040;-59
2023/07/03 07:47:44;;;;;;;9.32;8.43;;;;;;;27.12;52.94;100818.19;21083343;28;20044;-59
2023/07/03 07:57:48;;;;;;;10.13;9.02;;;;;;;27.19;53.16;100824.16;21082552;28;20083;-59
2023/07/03 08:07:49;;;;;;;9.30;8.30;;;;;;;27.24;53.14;100838.06;21080643;28;20070;-59
2023/07/03 08:17:50;;;;;;;9.75;7.35;;;;;;;27.30;52.76;100814.25;21080023;28;20476;-59
2023/07/03 08:27:52;;;;;;;8.95;7.38;;;;;;;27.35;52.59;100802.03;21079808;28;20036;-59
2023/07/03 08:37:54;;;;;;;7.50;6.60;;;;;;;27.39;52.57;100788.16;21078835;28;20043;-58
2023/07/03 08:47:56;;;;;;;8.90;7.30;;;;;;;27.41;52.32;100797.94;21078315;28;20056;-59
2023/07/03 08:57:57;;;;;;;7.78;6.97;;;;;;;27.47;51.89;100823.88;21077796;28;20052;-59
2023/07/03 09:08:07;;;;;;;8.85;7.35;;;;;;;27.50;52.42;100862.59;21077110;28;20048;-59
2023/07/03 09:18:14;;;;;;;8.45;7.50;;;;;;;27.54;52.18;100857.97;21076330;28;20536;-59
2023/07/03 09:28:16;;;;;;;7.63;6.82;;;;;;;27.58;52.07;100825.22;21075590;28;20048;-58
2023/07/03 09:38:21;;;;;;;7.30;6.25;;;;;;;27.59;51.82;100822.09;21075088;28;20118;-58
2023/07/03 09:48:25;;;;;;;7.32;6.07;;;;;;;27.57;52.29;100834.81;21074621;28;20055;-58
2023/07/03 09:58:29;;;;;;;7.82;6.80;;;;;;;27.62;52.03;100841.09;21074763;28;20040;-60
2023/07/03 10:08:30;;;;;;;7.43;6.63;;;;;;;27.63;52.00;100850.38;21074609;28;20032;-59
2023/07/03 10:18:37;;;;;;;6.60;5.90;;;;;;;27.71;51.73;100869.22;21073747;28;20468;-59
2023/07/03 10:28:46;;;;;;;7.57;6.78;;;;;;;27.73;52.03;100883.81;21073392;28;20047;-59
2023/07/03 10:39:07;;;;;;;7.05;6.35;;;;;;;27.76;52.26;100887.94;21072064;28;20070;-59
2023/07/03 10:49:17;;;;;;;6.45;5.75;;;;;;;27.77;51.95;100887.63;21087745;28;20442;-59
2023/07/03 10:59:33;;;;;;;7.05;6.18;;;;;;;27.76;52.11;100888.75;21087280;28;20074;-59
2023/07/03 11:10:13;;;;;;;6.93;6.00;;;;;;;27.75;52.41;100892.72;21085725;28;20093;-59
2023/07/03 11:20:26;;;;;;;7.55;6.47;;;;;;;27.83;52.10;100911.59;21050207;28;20070;-58
2023/07/03 11:30:33;;;;;;;6.82;6.15;;;;;;;27.78;52.01;100897.72;21084694;28;20052;-58
2023/07/03 11:41:07;;;;;;;7.38;6.32;;;;;;;27.82;52.23;100921.22;21082625;28;20056;-59
2023/07/03 11:51:11;;;;;;;7.03;6.32;;;;;;;27.91;52.19;100923.22;21082645;28;20082;-59
2023/07/03 12:01:25;;;;;;;7.25;6.05;;;;;;;27.89;51.90;100919.88;21080374;28;20040;-62
2023/07/03 12:11:27;;;;;;;7.65;6.13;;;;;;;27.91;52.03;100923.22;21081438;28;20048;-59
2023/07/03 12:21:39;;;;;;;7.20;6.50;;;;;;;27.94;51.98;100922.53;21080198;28;20036;-60
2023/07/03 12:31:53;;;;;;;6.25;5.65;;;;;;;27.94;52.15;100947.84;21079780;28;20060;-59
2023/07/03 12:42:05;;;;;;;7.47;6.68;;;;;;;27.95;52.31;100963.56;21078101;28;20125;-59
2023/07/03 12:52:07;;;;;;;7.95;6.78;;;;;;;27.99;52.64;100993.50;21078651;28;20044;-59
2023/07/03 13:02:11;;;;;;;6.97;6.28;;;;;;;28.03;52.77;100979.63;21075338;28;20032;-59
2023/07/03 13:12:21;;;;;;;7.65;6.40;;;;;;;27.86;52.76;100966.38;21076947;28;20051;-59
2023/07/03 13:22:25;;;;;;;8.38;6.60;;;;;;;28.05;53.01;101000.66;21076518;28;20040;-59
2023/07/03 13:32:26;;;;;;;7.38;6.50;;;;;;;28.07;52.59;101000.31;21076042;28;20105;-59
2023/07/03 13:42:28;;;;;;;9.13;8.10;;;;;;;28.08;52.72;101013.22;21075763;28;20052;-59
2023/07/03 13:52:30;;;;;;;9.00;7.53;;;;;;;28.04;53.04;100990.56;21075262;28;20089;-59
2023/07/03 14:02:31;;;;;;;8.05;7.07;;;;;;;28.12;52.82;100994.53;21074750;28;20040;-58
2023/07/03 14:12:33;;;;;;;8.10;7.30;;;;;;;28.12;52.85;100992.53;21074465;28;20097;-60
2023/07/03 14:22:35;;;;;;;7.90;6.88;;;;;;;28.11;53.02;100987.25;21089623;28;20044;-59
2023/07/03 14:32:36;;;;;;;9.63;7.88;;;;;;;28.15;53.28;100991.06;21089559;28;20040;-58
2023/07/03 14:42:37;;;;;;;8.38;7.57;;;;;;;28.18;53.32;100998.00;21088934;28;20059;-59
2023/07/03 14:52:44;;;;;;;9.60;8.45;;;;;;;28.19;53.17;100997.69;21088391;28;20036;-60
2023/07/03 15:02:48;;;;;;;8.67;7.77;;;;;;;28.14;53.12;100994.22;21087360;28;20101;-59
2023/07/03 15:12:49;;;;;;;8.32;7.32;;;;;;;28.18;53.30;101006.44;21085619;28;20036;-56
2023/07/03 15:22:51;;;;;;;8.35;7.53;;;;;;;27.77;53.24;100924.19;21084790;28;20403;-57
2023/07/03 15:32:53;;;;;;;9.25;8.15;;;;;;;28.24;53.18;100997.53;21084206;28;20044;-58
2023/07/03 15:42:54;;;;;;;9.98;8.35;;;;;;;28.26;53.24;100992.38;21084149;28;20112;-57
2023/07/03 15:52:55;;;;;;;9.65;8.18;;;;;;;28.27;52.83;100985.63;21084141;28;20036;-57
2023/07/03 16:02:59;;;;;;;9.20;7.68;;;;;;;28.28;51.58;100973.19;21082574;28;20044;-57
2023/07/03 16:13:01;;;;;;;7.95;7.07;;;;;;;28.15;49.15;100974.19;21081461;28;20086;-58
2023/07/03 16:23:03;;;;;;;17.02;7.53;;;;;;;28.01;47.95;100962.25;21080073;28;20052;-56
2023/07/03 16:33:04;;;;;;;28.83;8.68;;;;;;;27.94;46.12;100978.78;21079441;28;20040;-58
2023/07/03 16:43:06;;;;;;;81.20;10.98;;;;;;;27.82;46.60;100966.19;21077909;28;20623;-55
2023/07/03 16:53:10;;;;;;;102.07;12.38;;;;;;;27.80;47.74;100968.50;21078807;28;20086;-56
2023/07/03 17:03:14;;;;;;;223.23;20.77;;;;;;;27.81;48.28;100974.94;21077677;28;20048;-56
2023/07/03 17:13:15;;;;;;;176.60;19.10;;;;;;;27.80;48.02;100956.41;21076737;28;20105;-57
2023/07/03 17:23:17;;;;;;;166.02;18.58;;;;;;;27.77;48.49;100937.41;21076347;28;20479;-58
2023/07/03 17:33:19;;;;;;;327.08;28.70;;;;;;;27.88;49.79;100944.38;21075423;28;20082;-58
2023/07/03 17:43:23;;;;;;;164.40;18.67;;;;;;;27.85;46.84;100937.41;21075042;28;20074;-59
2023/07/03 17:53:25;;;;;;;110.45;16.13;;;;;;;27.78;45.30;100945.50;21083809;28;20043;-60
2023/07/03 18:03:32;;;;;;;75.28;12.85;;;;;;;27.71;44.33;100933.88;21091660;28;20048;-59
2023/07/03 18:13:33;;;;;;;67.13;11.18;;;;;;;27.66;43.73;100933.19;21090502;28;20043;-59
2023/07/03 18:23:35;;;;;;;51.28;10.43;;;;;;;27.58;43.24;100920.78;21089986;28;20050;-58
2023/07/03 18:33:36;;;;;;;36.30;8.63;;;;;;;27.49;42.89;100906.72;21070934;28;20029;-58
2023/07/03 18:43:37;;;;;;;31.92;8.25;;;;;;;27.46;42.87;100913.00;21024613;28;20078;-58
2023/07/03 18:53:39;;;;;;;27.50;7.97;;;;;;;27.48;46.74;100881.75;21052556;28;20048;-58
2023/07/03 19:03:41;;;;;;;42.70;10.20;;;;;;;27.71;48.61;100913.38;21083741;28;20044;-58
2023/07/03 19:13:42;;;;;;;56.25;10.25;;;;;;;27.84;50.00;100924.50;21037068;28;20394;-59
2023/07/03 19:23:43;;;;;;;48.25;9.43;;;;;;;27.82;48.65;100909.97;21083328;28;20044;-58
2023/07/03 19:41:55;;;;;;;251.40;32.17;;;;;;;27.86;49.73;100899.72;21104271;27;20546;-58
2023/07/03 19:51:57;;;;;;;243.95;27.40;;;;;;;28.02;49.25;100908.47;21062429;28;20048;-58
2023/07/03 20:01:59;;;;;;;204.00;24.02;;;;;;;28.09;49.54;100893.94;21061890;28;20037;-58
2023/07/03 20:12:00;;;;;;;116.88;17.25;;;;;;;28.15;49.48;100872.91;21061397;28;20040;-58
2023/07/03 20:22:02;;;;;;;68.30;12.38;;;;;;;28.20;48.39;100867.09;21059970;28;20108;-58
2023/07/03 20:32:05;;;;;;;238.70;22.48;;;;;;;28.24;48.54;100853.19;21059237;28;20044;-58
2023/07/03 20:42:09;;;;;;;429.92;40.88;;;;;;;28.23;47.87;100862.81;21057719;28;20051;-58
2023/07/03 20:52:11;;;;;;;267.23;31.05;;;;;;;28.12;44.95;100856.66;21008002;28;20032;-54
2023/07/03 21:02:12;;;;;;;194.57;26.30;;;;;;;27.99;43.69;100857.66;20999785;28;20067;-54
2023/07/03 21:12:14;;;;;;;133.98;22.08;;;;;;;27.88;42.88;100836.69;20999486;28;20044;-59
2023/07/03 21:22:16;;;;;;;120.65;19.50;;;;;;;27.78;41.79;100818.97;21001049;28;20380;-59
2023/07/03 21:32:17;;;;;;;96.45;17.50;;;;;;;27.69;41.32;100823.75;21001485;28;20109;-59
2023/07/03 21:42:19;;;;;;;66.88;16.80;;;;;;;27.58;40.76;100802.72;21000109;28;20048;-59
2023/07/03 21:52:20;;;;;;;71.63;14.38;;;;;;;27.53;40.54;100805.69;20999515;28;20077;-58
2023/07/03 22:02:25;;;;;;;50.33;12.43;;;;;;;27.42;40.30;100813.63;20997871;28;20067;-60
2023/07/03 22:12:26;;;;;;;54.83;12.93;;;;;;;27.41;39.79;100808.34;20996419;28;20110;-59
2023/07/03 22:22:29;;;;;;;40.78;11.13;;;;;;;27.38;39.63;100814.63;20997224;28;20450;-59
2023/07/03 22:32:31;;;;;;;36.35;10.85;;;;;;;27.31;39.78;100809.50;20996047;28;20056;-58
2023/07/03 22:42:32;;;;;;;44.90;10.50;;;;;;;27.26;39.38;100827.34;20995653;28;20056;-59
2023/07/03 22:52:34;;;;;;;36.35;9.57;;;;;;;27.21;39.41;100843.50;20995037;28;20097;-59
2023/07/03 23:02:36;;;;;;;24.10;8.32;;;;;;;27.15;39.35;100868.09;20994410;28;20041;-58
2023/07/03 23:12:38;;;;;;;32.40;7.63;;;;;;;27.16;39.89;100847.28;20993620;28;20517;-58
2023/07/03 23:22:39;;;;;;;25.13;8.20;;;;;;;27.15;39.84;100856.03;20993492;28;20094;-59
2023/07/03 23:32:40;;;;;;;25.00;7.85;;;;;;;27.13;40.48;100852.75;20992861;28;20491;-58
2023/07/03 23:42:42;;;;;;;17.33;7.22;;;;;;;27.08;40.44;100822.78;20993036;28;20041;-58
2023/07/03 23:52:47;;;;;;;22.83;7.10;;;;;;;27.06;40.52;100797.81;20992547;28;20044;-58
